Time;durP1;ratioP1;P1;durP2;ratioP2;P2;SDS_P1;SDS_P2;PMS_P1;PMS_P2;Temp;Humidity;BMP_temperature;BMP_pressure;BME280_temperature;BME280_humidity;BME280_pressure;Samples;Min_cycle;Max_cycle;Signal;HPM_P1;HPM_P2
2022/11/22 00:00:18;;;;;;;;;;;;;;;-0.59;100.00;99418.78;2090135;28;19921;-75
2022/11/22 00:01:20;;;;;;;;;;;;;;;-0.59;100.00;99414.38;2088990;28;36112;-75
2022/11/22 00:02:21;;;;;;;;;;;;;;;-0.56;100.00;99413.50;2089446;28;37576;-75
2022/11/22 00:03:24;;;;;;;;;;;;;;;-0.55;100.00;99420.50;2089460;28;30018;-75
2022/11/22 00:04:25;;;;;;;;;;;;;;;-0.50;100.00;99408.22;2089519;28;34626;-75
2022/11/22 00:05:27;;;;;;;;;;;;;;;-0.52;100.00;99404.72;2089375;28;36285;-74
2022/11/22 00:06:29;;;;;;;;;;;;;;;-0.51;100.00;99398.56;2089673;28;33625;-75
2022/11/22 00:07:30;;;;;;;;;;;;;;;-0.50;100.00;99400.34;2089057;28;41244;-75
2022/11/22 00:08:32;;;;;;;;;;;;;;;-0.48;100.00;99398.56;2089998;28;25665;-75
2022/11/22 00:09:34;;;;;;;;;;;;;;;-0.47;100.00;99397.69;2089181;28;36567;-75
2022/11/22 00:10:35;;;;;;;;;;;;;;;-0.46;100.00;99407.34;2089277;28;37452;-74
2022/11/22 00:11:37;;;;;;;;;;;;;;;-0.46;100.00;99399.44;2089077;28;37667;-75
2022/11/22 00:12:39;;;;;;;;;;;;;;;-0.43;100.00;99390.66;2088668;28;40581;-74
2022/11/22 00:13:41;;;;;;;;;;;;;;;-0.42;100.00;99384.53;2089343;28;29826;-75
2022/11/22 00:14:42;;;;;;;;;;;;;;;-0.41;100.00;99394.19;2089275;28;35203;-75
2022/11/22 00:15:44;;;;;;;;;;;;;;;-0.41;100.00;99387.16;2089180;28;39684;-74
2022/11/22 00:16:46;;;;;;;;;;;;;;;-0.40;100.00;99381.00;2089130;28;35557;-74
2022/11/22 00:17:50;;;;;;;;;;;;;;;-0.37;100.00;99384.53;2089299;28;32990;-75
2022/11/22 00:18:51;;;;;;;;;;;;;;;-0.36;100.00;99373.97;2089550;28;19925;-75
2022/11/22 00:19:53;;;;;;;;;;;;;;;-0.36;100.00;99359.97;2089106;28;37638;-74
2022/11/22 00:20:55;;;;;;;;;;;;;;;-0.36;100.00;99371.34;2089651;28;31630;-75
2022/11/22 00:21:57;;;;;;;;;;;;;;;-0.33;100.00;99365.22;2088507;28;28482;-75
2022/11/22 00:22:58;;;;;;;;;;;;;;;-0.33;100.00;99352.06;2088846;28;32835;-75
2022/11/22 00:24:00;;;;;;;;;;;;;;;-0.32;100.00;99352.06;2089322;28;31262;-75
2022/11/22 00:25:02;;;;;;;;;;;;;;;-0.31;100.00;99364.31;2089531;28;37312;-75
2022/11/22 00:26:03;;;;;;;;;;;;;;;-0.29;100.00;99356.44;2089234;28;39200;-75
2022/11/22 00:27:05;;;;;;;;;;;;;;;-0.28;100.00;99352.94;2090000;28;19951;-75
2022/11/22 00:28:06;;;;;;;;;;;;;;;-0.29;100.00;99351.16;2089115;28;31299;-75
2022/11/22 00:29:08;;;;;;;;;;;;;;;-0.27;100.00;99345.03;2089243;28;31625;-75
2022/11/22 00:30:10;;;;;;;;;;;;;;;-0.24;100.00;99344.13;2089506;28;35592;-75
2022/11/22 00:31:11;;;;;;;;;;;;;;;-0.24;100.00;99338.88;2089000;28;34541;-75
2022/11/22 00:32:13;;;;;;;;;;;;;;;-0.23;100.00;99349.41;2089445;28;36106;-75
2022/11/22 00:33:14;;;;;;;;;;;;;;;-0.22;100.00;99334.47;2090001;28;20762;-75
2022/11/22 00:34:16;;;;;;;;;;;;;;;-0.21;100.00;99330.97;2088385;28;41004;-74
2022/11/22 00:35:18;;;;;;;;;;;;;;;-0.22;100.00;99331.84;2080738;28;34729;-75
2022/11/22 00:36:19;;;;;;;;;;;;;;;-0.22;100.00;99337.97;2088921;28;31618;-74
2022/11/22 00:37:21;;;;;;;;;;;;;;;-0.20;100.00;99340.59;2088978;28;34279;-75
2022/11/22 00:38:22;;;;;;;;;;;;;;;-0.20;100.00;99340.59;2089239;28;31530;-75
2022/11/22 00:39:24;;;;;;;;;;;;;;;-0.19;100.00;99347.63;2087878;28;38602;-75
2022/11/22 00:40:27;;;;;;;;;;;;;;;-0.20;100.00;99341.50;2088770;28;29958;-75
2022/11/22 00:41:29;;;;;;;;;;;;;;;-0.18;100.00;99349.34;2089395;28;28164;-75
2022/11/22 00:42:31;;;;;;;;;;;;;;;-0.15;100.00;99343.22;2088951;28;36638;-75
2022/11/22 00:43:32;;;;;;;;;;;;;;;-0.14;100.00;99339.69;2089149;28;38558;-75
2022/11/22 00:44:34;;;;;;;;;;;;;;;-0.13;100.00;99341.44;2089168;28;32890;-75
2022/11/22 00:45:35;;;;;;;;;;;;;;;-0.12;100.00;99338.81;2088959;28;33949;-75
2022/11/22 00:46:37;;;;;;;;;;;;;;;-0.11;100.00;99344.94;2088818;28;31336;-75
2022/11/22 00:47:38;;;;;;;;;;;;;;;-0.13;100.00;99338.81;2089123;28;37425;-75
2022/11/22 00:48:40;;;;;;;;;;;;;;;-0.13;100.00;99339.69;2089476;28;34374;-75
2022/11/22 00:49:41;;;;;;;;;;;;;;;-0.12;100.00;99335.31;2088958;28;30004;-75
2022/11/22 00:50:43;;;;;;;;;;;;;;;-0.12;100.00;99336.19;2088590;28;36826;-75
2022/11/22 00:51:44;;;;;;;;;;;;;;;-0.12;100.00;99333.56;2080637;28;34113;-76
2022/11/22 00:52:48;;;;;;;;;;;;;;;-0.11;100.00;99321.28;2080041;28;36092;-76
2022/11/22 00:53:50;;;;;;;;;;;;;;;-0.13;100.00;99342.31;2080870;28;30382;-76
2022/11/22 00:54:51;;;;;;;;;;;;;;;-0.13;100.00;99334.44;2080988;28;32584;-76
2022/11/22 00:55:55;;;;;;;;;;;;;;;-0.12;100.00;99337.94;2081398;28;23129;-76
2022/11/22 00:56:57;;;;;;;;;;;;;;;-0.12;100.00;99349.34;2080870;28;32567;-75
2022/11/22 00:57:58;;;;;;;;;;;;;;;-0.13;100.00;99344.09;2081351;28;20749;-75
2022/11/22 00:59:00;;;;;;;;;;;;;;;-0.13;100.00;99351.97;2080735;28;35840;-76
2022/11/22 01:00:04;;;;;;;;;;;;;;;-0.14;100.00;99356.38;2080586;28;37381;-76
2022/11/22 01:01:05;;;;;;;;;;;;;;;-0.13;100.00;99359.88;2081576;28;19926;-76
2022/11/22 01:02:07;;;;;;;;;;;;;;;-0.14;100.00;99356.38;2079729;28;32431;-76
2022/11/22 01:03:12;;;;;;;;;;;;;;;-0.14;100.00;99355.47;2080600;28;31188;-76
2022/11/22 01:04:14;;;;;;;;;;;;;;;-0.15;100.00;99344.09;2080670;28;36861;-76
2022/11/22 01:05:16;;;;;;;;;;;;;;;-0.16;100.00;99351.97;2080685;28;38031;-76
2022/11/22 01:06:18;;;;;;;;;;;;;;;-0.15;100.00;99344.09;2081072;28;31293;-76
2022/11/22 01:07:22;;;;;;;;;;;;;;;-0.18;100.00;99344.09;2081084;28;30806;-76
2022/11/22 01:08:23;;;;;;;;;;;;;;;-0.19;100.00;99352.88;2080635;28;35505;-76
2022/11/22 01:09:25;;;;;;;;;;;;;;;-0.17;100.00;99359.00;2080628;28;33366;-76
2022/11/22 01:10:29;;;;;;;;;;;;;;;-0.19;100.00;99358.13;2081168;28;19999;-75
2022/11/22 01:11:31;;;;;;;;;;;;;;;-0.18;100.00;99359.00;2080962;28;32527;-75
2022/11/22 01:12:32;;;;;;;;;;;;;;;-0.20;100.00;99356.38;2080882;28;32172;-75
2022/11/22 01:13:34;;;;;;;;;;;;;;;-0.20;100.00;99359.00;2080933;28;34994;-76
2022/11/22 01:14:35;;;;;;;;;;;;;;;-0.19;100.00;99358.13;2080876;28;30883;-76
2022/11/22 01:15:39;;;;;;;;;;;;;;;-0.20;100.00;99353.75;2080785;28;39015;-76
2022/11/22 01:16:41;;;;;;;;;;;;;;;-0.22;100.00;99351.13;2080837;28;31413;-77
2022/11/22 01:17:43;;;;;;;;;;;;;;;-0.22;100.00;99347.63;2081145;28;29313;-76
2022/11/22 01:18:44;;;;;;;;;;;;;;;-0.23;100.00;99351.16;2080326;28;36317;-76
2022/11/22 01:19:46;;;;;;;;;;;;;;;-0.22;100.00;99352.88;2080667;28;40992;-76
2022/11/22 01:20:48;;;;;;;;;;;;;;;-0.22;100.00;99350.25;2081293;28;31674;-76
2022/11/22 01:21:49;;;;;;;;;;;;;;;-0.23;100.00;99349.41;2088989;28;36319;-76
2022/11/22 01:22:51;;;;;;;;;;;;;;;-0.25;100.00;99347.63;2088388;28;34874;-76
2022/11/22 01:23:52;;;;;;;;;;;;;;;-0.25;100.00;99347.63;2088991;28;41260;-76
2022/11/22 01:24:54;;;;;;;;;;;;;;;-0.26;100.00;99341.50;2088589;28;41123;-76
2022/11/22 01:25:55;;;;;;;;;;;;;;;-0.26;100.00;99346.78;2089380;28;32199;-76
2022/11/22 01:27:00;;;;;;;;;;;;;;;-0.26;100.00;99338.00;2088495;28;38885;-76
2022/11/22 01:28:01;;;;;;;;;;;;;;;-0.26;100.00;99345.91;2089517;28;20019;-75
2022/11/22 01:29:03;;;;;;;;;;;;;;;-0.27;100.00;99344.16;2088373;28;41014;-76
2022/11/22 01:30:06;;;;;;;;;;;;;;;-0.27;100.00;99350.31;2089082;28;35244;-76
2022/11/22 01:31:08;;;;;;;;;;;;;;;-0.26;100.00;99345.91;2088802;28;31064;-76
2022/11/22 01:32:09;;;;;;;;;;;;;;;-0.27;100.00;99350.31;2088975;28;41219;-76
2022/11/22 01:33:13;;;;;;;;;;;;;;;-0.28;100.00;99338.03;2089256;28;30587;-78
2022/11/22 01:34:14;;;;;;;;;;;;;;;-0.28;100.00;99343.28;2087981;28;37901;-75
2022/11/22 01:35:16;;;;;;;;;;;;;;;-0.28;100.00;99340.66;2087940;28;39387;-75
2022/11/22 01:36:18;;;;;;;;;;;;;;;-0.28;100.00;99332.75;2089467;28;36647;-76
2022/11/22 01:37:19;;;;;;;;;;;;;;;-0.28;100.00;99331.91;2088548;28;36990;-76
2022/11/22 01:38:21;;;;;;;;;;;;;;;-0.28;100.00;99326.63;2088841;28;35059;-76
2022/11/22 01:39:22;;;;;;;;;;;;;;;-0.29;100.00;99323.09;2088670;28;30460;-74
2022/11/22 01:40:24;;;;;;;;;;;;;;;-0.29;100.00;99325.75;2089023;28;33797;-75
2022/11/22 01:41:25;;;;;;;;;;;;;;;-0.29;100.00;99333.63;2088383;28;36802;-75
2022/11/22 01:42:49;;;;;;;;;;;;;;;-0.28;100.00;99324.00;2088540;28;36141;-76
2022/11/22 01:43:51;;;;;;;;;;;;;;;-0.29;100.00;99316.97;2088714;28;40813;-77
2022/11/22 01:44:52;;;;;;;;;;;;;;;-0.29;100.00;99323.09;2087387;28;36931;-75
2022/11/22 01:45:56;;;;;;;;;;;;;;;-0.29;100.00;99325.75;2088031;28;34421;-75
2022/11/22 01:47:03;;;;;;;;;;;;;;;-0.29;100.00;99322.25;2089027;28;31275;-75
2022/11/22 01:48:11;;;;;;;;;;;;;;;-0.29;100.00;99322.25;2089098;28;27824;-75
2022/11/22 01:49:18;;;;;;;;;;;;;;;-0.29;100.00;99325.75;2088797;28;32597;-75
2022/11/22 01:50:22;;;;;;;;;;;;;;;-0.29;100.00;99325.75;2088479;28;34700;-76
2022/11/22 01:51:35;;;;;;;;;;;;;;;-0.30;100.00;99328.41;2088132;28;35323;-77
2022/11/22 01:52:39;;;;;;;;;;;;;;;-0.30;100.00;99323.16;2088792;28;19921;-77
2022/11/22 01:53:41;;;;;;;;;;;;;;;-0.29;100.00;99327.50;2087707;28;40466;-76
2022/11/22 01:54:49;;;;;;;;;;;;;;;-0.29;100.00;99319.63;2088753;28;35398;-75
2022/11/22 01:55:52;;;;;;;;;;;;;;;-0.29;100.00;99322.25;2088977;28;27530;-77
2022/11/22 01:57:00;;;;;;;;;;;;;;;-0.29;100.00;99322.25;2088992;28;31893;-74
2022/11/22 01:58:02;;;;;;;;;;;;;;;-0.30;100.00;99324.00;2088718;28;30891;-77
2022/11/22 01:59:10;;;;;;;;;;;;;;;-0.31;100.00;99327.50;2088886;28;38425;-76
2022/11/22 02:00:15;;;;;;;;;;;;;;;-0.31;100.00;99321.38;2088479;28;30254;-77
2022/11/22 02:01:20;;;;;;;;;;;;;;;-0.32;100.00;99315.25;2089654;28;19920;-76
2022/11/22 02:02:21;;;;;;;;;;;;;;;-0.32;100.00;99319.63;2088079;28;38874;-76
2022/11/22 02:03:28;;;;;;;;;;;;;;;-0.32;100.00;99320.53;2089041;28;35332;-77
2022/11/22 02:04:32;;;;;;;;;;;;;;;-0.32;100.00;99322.25;2088662;28;36712;-75
2022/11/22 02:05:34;;;;;;;;;;;;;;;-0.32;100.00;99319.63;2088534;28;39237;-76
2022/11/22 02:07:04;;;;;;;;;;;;;;;-0.32;100.00;99324.88;2088948;28;19925;-75
2022/11/22 02:08:28;;;;;;;;;;;;;;;-0.32;100.00;99319.63;2088618;28;35773;-75
2022/11/22 02:09:31;;;;;;;;;;;;;;;-0.33;100.00;99316.13;2089412;28;20040;-75
2022/11/22 02:10:39;;;;;;;;;;;;;;;-0.33;100.00;99305.59;2088081;28;40968;-75
2022/11/22 02:11:47;;;;;;;;;;;;;;;-0.34;100.00;99301.25;2088778;28;31210;-75
2022/11/22 02:12:52;;;;;;;;;;;;;;;-0.33;100.00;99307.38;2088612;28;35564;-77
2022/11/22 02:13:55;;;;;;;;;;;;;;;-0.34;100.00;99305.59;2088619;28;39041;-75
2022/11/22 02:14:57;;;;;;;;;;;;;;;-0.34;100.00;99303.88;2088642;28;19928;-76
2022/11/22 02:15:59;;;;;;;;;;;;;;;-0.35;100.00;99298.63;2089016;28;34157;-75
2022/11/22 02:17:01;;;;;;;;;;;;;;;-0.35;100.00;99296.00;2088496;28;35616;-75
2022/11/22 02:18:02;;;;;;;;;;;;;;;-0.34;100.00;99289.84;2088703;28;31929;-75
2022/11/22 02:19:09;;;;;;;;;;;;;;;-0.35;100.00;99288.97;2089084;28;19921;-76
2022/11/22 02:20:11;;;;;;;;;;;;;;;-0.36;100.00;99287.22;2088666;28;38062;-75
2022/11/22 02:21:13;;;;;;;;;;;;;;;-0.36;100.00;99284.56;2088119;28;35900;-75
2022/11/22 02:22:43;;;;;;;;;;;;;;;-0.35;100.00;99282.84;2088585;28;38342;-75
2022/11/22 02:24:03;;;;;;;;;;;;;;;-0.37;100.00;99284.63;2089270;28;32901;-75
2022/11/22 02:25:17;;;;;;;;;;;;;;;-0.37;100.00;99292.50;2088418;28;37995;-76
2022/11/22 02:26:20;;;;;;;;;;;;;;;-0.36;100.00;99287.22;2088759;28;38174;-76
2022/11/22 02:27:24;;;;;;;;;;;;;;;-0.36;100.00;99296.88;2089282;28;20120;-76
2022/11/22 02:28:29;;;;;;;;;;;;;;;-0.35;100.00;99288.97;2088512;28;36544;-76
2022/11/22 02:29:31;;;;;;;;;;;;;;;-0.35;100.00;99285.47;2088690;28;19925;-76
2022/11/22 02:30:35;;;;;;;;;;;;;;;-0.35;100.00;99296.84;2088833;28;38101;-76
2022/11/22 02:31:41;;;;;;;;;;;;;;;-0.36;100.00;99287.22;2088083;28;35757;-75
2022/11/22 02:32:43;;;;;;;;;;;;;;;-0.36;100.00;99283.72;2089291;28;19929;-76
2022/11/22 02:33:44;;;;;;;;;;;;;;;-0.34;100.00;99276.69;2088350;28;39730;-76
2022/11/22 02:34:48;;;;;;;;;;;;;;;-0.35;100.00;99277.59;2089076;28;24929;-76
2022/11/22 02:35:50;;;;;;;;;;;;;;;-0.36;100.00;99271.44;2088536;28;30753;-76
2022/11/22 02:36:53;;;;;;;;;;;;;;;-0.35;100.00;99272.34;2088641;28;37195;-76
2022/11/22 02:38:07;;;;;;;;;;;;;;;-0.34;100.00;99258.28;2089076;28;19921;-76
2022/11/22 02:39:13;;;;;;;;;;;;;;;-0.34;100.00;99259.19;2088540;28;34997;-76
2022/11/22 02:40:16;;;;;;;;;;;;;;;-0.35;100.00;99260.03;2088811;28;32213;-76
2022/11/22 02:41:18;;;;;;;;;;;;;;;-0.34;100.00;99255.66;2087875;28;36378;-76
2022/11/22 02:42:21;;;;;;;;;;;;;;;-0.33;100.00;99257.41;2088316;28;40136;-76
2022/11/22 02:43:26;;;;;;;;;;;;;;;-0.34;100.00;99261.81;2088376;28;20848;-76
2022/11/22 02:44:48;;;;;;;;;;;;;;;-0.36;100.00;99253.03;2087564;28;31499;-75
2022/11/22 02:45:51;;;;;;;;;;;;;;;-0.36;100.00;99260.91;2089050;28;20063;-75
2022/11/22 02:46:54;;;;;;;;;;;;;;;-0.37;100.00;99267.06;2089234;28;20793;-74
2022/11/22 02:48:14;;;;;;;;;;;;;;;-0.36;100.00;99267.94;2087050;28;40520;-74
2022/11/22 02:49:20;;;;;;;;;;;;;;;-0.37;100.00;99263.59;2089044;28;19925;-75
2022/11/22 02:50:22;;;;;;;;;;;;;;;-0.37;100.00;99269.72;2088151;28;37209;-75
2022/11/22 02:51:24;;;;;;;;;;;;;;;-0.37;100.00;99274.09;2088679;28;33341;-75
2022/11/22 02:52:26;;;;;;;;;;;;;;;-0.37;100.00;99274.09;2089116;28;30065;-75
2022/11/22 02:53:31;;;;;;;;;;;;;;;-0.36;100.00;99279.31;2087898;28;40279;-75
2022/11/22 02:54:33;;;;;;;;;;;;;;;-0.35;100.00;99277.59;2089326;28;19932;-75
2022/11/22 02:55:37;;;;;;;;;;;;;;;-0.37;100.00;99261.81;2087809;28;31740;-75
2022/11/22 02:56:39;;;;;;;;;;;;;;;-0.36;100.00;99270.56;2087440;28;38457;-75
2022/11/22 02:57:40;;;;;;;;;;;;;;;-0.36;100.00;99260.06;2089257;28;19924;-75
2022/11/22 02:58:43;;;;;;;;;;;;;;;-0.37;100.00;99253.94;2088357;28;36016;-75
2022/11/22 02:59:44;;;;;;;;;;;;;;;-0.37;100.00;99256.56;2088289;28;31868;-75
2022/11/22 03:00:46;;;;;;;;;;;;;;;-0.36;100.00;99260.06;2087977;28;19974;-75
2022/11/22 03:01:48;;;;;;;;;;;;;;;-0.34;100.00;99268.78;2088947;28;29718;-75
2022/11/22 03:02:49;;;;;;;;;;;;;;;-0.35;100.00;99267.94;2090359;28;19960;-75
2022/11/22 03:03:51;;;;;;;;;;;;;;;-0.33;100.00;99275.81;2089678;28;40038;-75
2022/11/22 03:04:52;;;;;;;;;;;;;;;-0.35;100.00;99264.44;2089385;28;28120;-75
2022/11/22 03:05:54;;;;;;;;;;;;;;;-0.34;100.00;99264.44;2089923;28;38757;-75
2022/11/22 03:06:58;;;;;;;;;;;;;;;-0.34;100.00;99258.28;2089774;28;36729;-75
2022/11/22 03:07:59;;;;;;;;;;;;;;;-0.36;100.00;99253.03;2089902;28;37047;-75
2022/11/22 03:09:01;;;;;;;;;;;;;;;-0.35;100.00;99253.94;2089852;28;33637;-75
2022/11/22 03:10:03;;;;;;;;;;;;;;;-0.33;100.00;99249.53;2090124;28;38965;-75
2022/11/22 03:11:05;;;;;;;;;;;;;;;-0.34;100.00;99250.41;2090140;28;20068;-74
2022/11/22 03:12:07;;;;;;;;;;;;;;;-0.33;100.00;99246.91;2089664;28;38936;-75
2022/11/22 03:13:08;;;;;;;;;;;;;;;-0.33;100.00;99255.66;2089869;28;27903;-74
2022/11/22 03:14:10;;;;;;;;;;;;;;;-0.34;100.00;99256.56;2090022;28;35442;-76
2022/11/22 03:15:11;;;;;;;;;;;;;;;-0.33;100.00;99260.03;2089185;28;37597;-75
2022/11/22 03:16:13;;;;;;;;;;;;;;;-0.33;100.00;99249.53;2090916;28;19925;-75
2022/11/22 03:17:15;;;;;;;;;;;;;;;-0.33;100.00;99254.78;2089957;28;23786;-75
2022/11/22 03:18:17;;;;;;;;;;;;;;;-0.34;100.00;99261.81;2089297;28;41036;-74
2022/11/22 03:19:19;;;;;;;;;;;;;;;-0.33;100.00;99265.31;2090161;28;20750;-75
2022/11/22 03:20:20;;;;;;;;;;;;;;;-0.33;100.00;99260.91;2089718;28;41920;-75
2022/11/22 03:21:22;;;;;;;;;;;;;;;-0.33;100.00;99249.53;2089334;28;35000;-75
2022/11/22 03:22:23;;;;;;;;;;;;;;;-0.31;100.00;99268.78;2089962;28;34838;-75
2022/11/22 03:23:25;;;;;;;;;;;;;;;-0.31;100.00;99260.91;2089713;28;35431;-74
2022/11/22 03:24:26;;;;;;;;;;;;;;;-0.30;100.00;99254.78;2089946;28;32961;-75
2022/11/22 03:25:28;;;;;;;;;;;;;;;-0.29;100.00;99253.88;2089232;28;40641;-75
2022/11/22 03:26:29;;;;;;;;;;;;;;;-0.28;100.00;99266.16;2090160;28;30999;-75
2022/11/22 03:27:33;;;;;;;;;;;;;;;-0.28;100.00;99261.75;2090306;28;19921;-73
2022/11/22 03:28:35;;;;;;;;;;;;;;;-0.26;100.00;99254.72;2089743;28;33675;-74
2022/11/22 03:29:38;;;;;;;;;;;;;;;-0.24;100.00;99257.34;2089230;28;36711;-74
2022/11/22 03:30:41;;;;;;;;;;;;;;;-0.26;100.00;99267.88;2089743;28;38747;-76
2022/11/22 03:31:42;;;;;;;;;;;;;;;-0.23;100.00;99256.47;2089525;28;38850;-75
2022/11/22 03:32:44;;;;;;;;;;;;;;;-0.23;100.00;99262.59;2090544;28;19919;-75
2022/11/22 03:33:45;;;;;;;;;;;;;;;-0.22;100.00;99260.84;2089350;28;39050;-74
2022/11/22 03:34:47;;;;;;;;;;;;;;;-0.23;100.00;99256.47;2089700;28;34938;-76
2022/11/22 03:35:48;;;;;;;;;;;;;;;-0.21;100.00;99254.72;2089661;28;32255;-73
2022/11/22 03:36:50;;;;;;;;;;;;;;;-0.21;100.00;99259.97;2089859;28;36358;-75
2022/11/22 03:37:51;;;;;;;;;;;;;;;-0.20;100.00;99259.97;2088775;28;37395;-74
2022/11/22 03:38:53;;;;;;;;;;;;;;;-0.20;100.00;99257.34;2089524;28;19921;-75
2022/11/22 03:39:55;;;;;;;;;;;;;;;-0.18;100.00;99236.25;2090078;28;21400;-76
2022/11/22 03:40:56;;;;;;;;;;;;;;;-0.15;100.00;99248.53;2089311;28;32960;-75
2022/11/22 03:41:58;;;;;;;;;;;;;;;-0.15;100.00;99259.06;2089428;28;20081;-75
2022/11/22 03:43:00;;;;;;;;;;;;;;;-0.14;100.00;99250.25;2089867;28;33390;-75
2022/11/22 03:44:02;;;;;;;;;;;;;;;-0.13;100.00;99255.50;2089288;28;40202;-75
2022/11/22 03:45:08;;;;;;;;;;;;;;;-0.12;100.00;99253.78;2089263;28;35042;-73
2022/11/22 03:46:14;;;;;;;;;;;;;;;-0.11;100.00;99242.34;2089357;28;38487;-73
2022/11/22 03:47:15;;;;;;;;;;;;;;;-0.12;100.00;99259.03;2089619;28;31940;-74
2022/11/22 03:48:17;;;;;;;;;;;;;;;-0.11;100.00;99264.25;2089006;28;35081;-74
2022/11/22 03:49:19;;;;;;;;;;;;;;;-0.10;100.00;99257.28;2089662;28;31177;-74
2022/11/22 03:50:21;;;;;;;;;;;;;;;-0.09;100.00;99259.00;2089209;28;33097;-74
2022/11/22 03:51:22;;;;;;;;;;;;;;;-0.09;100.00;99256.38;2089157;28;33611;-74
2022/11/22 03:52:24;;;;;;;;;;;;;;;-0.09;100.00;99259.91;2089180;28;39518;-73
2022/11/22 03:53:25;;;;;;;;;;;;;;;-0.07;100.00;99251.97;2090213;28;28715;-74
2022/11/22 03:54:27;;;;;;;;;;;;;;;-0.08;100.00;99253.72;2089042;28;40441;-74
2022/11/22 03:55:28;;;;;;;;;;;;;;;-0.07;100.00;99249.34;2089477;28;38341;-73
2022/11/22 03:56:30;;;;;;;;;;;;;;;-0.06;100.00;99251.09;2089372;28;36853;-73
2022/11/22 03:57:31;;;;;;;;;;;;;;;-0.07;100.00;99244.97;2089596;28;32269;-73
2022/11/22 03:58:33;;;;;;;;;;;;;;;-0.07;100.00;99252.84;2090180;28;21834;-73
2022/11/22 03:59:35;;;;;;;;;;;;;;;-0.06;100.00;99248.47;2089057;28;38493;-73
2022/11/22 04:00:37;;;;;;;;;;;;;;;-0.05;100.00;99253.72;2088957;28;38346;-73
2022/11/22 04:01:40;;;;;;;;;;;;;;;-0.04;100.00;99258.06;2090246;28;20034;-73
2022/11/22 04:02:42;;;;;;;;;;;;;;;-0.05;100.00;99251.09;2089610;28;23655;-73
2022/11/22 04:03:46;;;;;;;;;;;;;;;-0.04;100.00;99258.06;2090124;28;19921;-73
2022/11/22 04:04:47;;;;;;;;;;;;;;;-0.04;100.00;99252.81;2089226;28;38519;-72
2022/11/22 04:05:49;;;;;;;;;;;;;;;-0.03;100.00;99265.09;2089774;28;34536;-72
2022/11/22 04:06:50;;;;;;;;;;;;;;;-0.03;100.00;99258.97;2089301;28;36075;-73
2022/11/22 04:07:55;;;;;;;;;;;;;;;-0.03;100.00;99258.97;2089684;28;32297;-73
2022/11/22 04:08:56;;;;;;;;;;;;;;;-0.03;100.00;99257.19;2089492;28;29866;-72
2022/11/22 04:09:58;;;;;;;;;;;;;;;-0.03;100.00;99278.25;2090000;28;22716;-72
2022/11/22 04:10:59;;;;;;;;;;;;;;;-0.01;100.00;99242.28;2089558;28;35816;-73
2022/11/22 04:12:03;;;;;;;;;;;;;;;-0.01;100.00;99258.06;2090211;28;32870;-73
2022/11/22 04:13:05;;;;;;;;;;;;;;;-0.02;100.00;99248.44;2089298;28;35714;-72
2022/11/22 04:15:30;;;;;;;;;;;;;;;0.00;100.00;99248.44;2089633;28;36246;-72
2022/11/22 04:16:32;;;;;;;;;;;;;;;0.00;100.00;99248.44;2088570;28;36568;-72
2022/11/22 04:17:39;;;;;;;;;;;;;;;0.01;100.00;99228.25;2088944;28;30136;-73
2022/11/22 04:18:41;;;;;;;;;;;;;;;0.02;100.00;99241.41;2089516;28;32753;-73
2022/11/22 04:21:32;;;;;;;;;;;;;;;0.02;100.00;99240.50;2089544;28;20707;-72
2022/11/22 04:22:24;;;;;;;;;;;;;;;0.03;100.00;99229.09;2090373;28;20699;-73
2022/11/22 04:23:26;;;;;;;;;;;;;;;0.04;100.00;99230.88;2089320;28;36883;-73
2022/11/22 04:25:54;;;;;;;;;;;;;;;0.05;100.00;99232.59;2089928;28;19921;-72
2022/11/22 04:26:58;;;;;;;;;;;;;;;0.05;100.00;99229.97;2089766;28;20676;-73
2022/11/22 04:28:00;;;;;;;;;;;;;;;0.06;100.00;99231.72;2089749;28;20063;-71
2022/11/22 04:29:03;;;;;;;;;;;;;;;0.06;100.00;99244.88;2089353;28;34954;-71
2022/11/22 04:30:10;;;;;;;;;;;;;;;0.07;100.00;99247.50;2088937;28;33636;-73
2022/11/22 04:32:45;;;;;;;;;;;;;;;0.09;100.00;99239.56;2089149;28;37924;-72
2022/11/22 04:33:46;;;;;;;;;;;;;;;0.08;100.00;99241.34;2088855;28;41327;-73
2022/11/22 04:34:48;;;;;;;;;;;;;;;0.09;100.00;99243.09;2089143;28;33310;-72
2022/11/22 04:35:50;;;;;;;;;;;;;;;0.09;100.00;99242.19;2089118;28;40018;-74
2022/11/22 04:36:51;;;;;;;;;;;;;;;0.10;100.00;99243.97;2089098;28;33246;-72
2022/11/22 04:37:53;;;;;;;;;;;;;;;0.10;100.00;99243.97;2088937;28;31079;-73
2022/11/22 04:38:54;;;;;;;;;;;;;;;0.10;100.00;99236.06;2089034;28;38488;-73
2022/11/22 04:39:56;;;;;;;;;;;;;;;0.11;100.00;99243.09;2090212;28;19917;-73
2022/11/22 04:40:57;;;;;;;;;;;;;;;0.11;100.00;99240.47;2088917;28;32871;-75
2022/11/22 04:44:49;;;;;;;;;;;;;;;0.13;100.00;99252.69;2088339;28;39120;-73
2022/11/22 04:45:50;;;;;;;;;;;;;;;0.13;100.00;99250.06;2089275;28;35474;-73
2022/11/22 04:46:52;;;;;;;;;;;;;;;0.13;100.00;99251.84;2088855;28;36264;-73
2022/11/22 04:47:59;;;;;;;;;;;;;;;0.14;100.00;99259.72;2088866;28;37937;-74
2022/11/22 04:49:01;;;;;;;;;;;;;;;0.15;100.00;99252.69;2089310;28;32536;-74
2022/11/22 04:52:54;;;;;;;;;;;;;;;0.15;100.00;99248.28;2087988;28;34053;-75
2022/11/22 04:54:01;;;;;;;;;;;;;;;0.16;100.00;99246.53;2088515;28;43130;-73
2022/11/22 04:55:02;;;;;;;;;;;;;;;0.18;100.00;99244.78;2088952;28;34133;-74
2022/11/22 04:56:04;;;;;;;;;;;;;;;0.18;100.00;99252.69;2089268;28;38380;-71
2022/11/22 04:57:06;;;;;;;;;;;;;;;0.18;100.00;99247.41;2087672;28;31863;-73
2022/11/22 04:58:07;;;;;;;;;;;;;;;0.17;100.00;99243.03;2089029;28;38164;-73
2022/11/22 04:59:12;;;;;;;;;;;;;;;0.18;100.00;99257.94;2088662;28;36725;-73
2022/11/22 05:00:14;;;;;;;;;;;;;;;0.18;100.00;99247.41;2088894;28;26821;-73
2022/11/22 05:01:17;;;;;;;;;;;;;;;0.18;100.00;99252.69;2088936;28;31733;-74
2022/11/22 05:02:21;;;;;;;;;;;;;;;0.18;100.00;99253.53;2088877;28;39002;-73
2022/11/22 05:03:22;;;;;;;;;;;;;;;0.18;100.00;99256.19;2089127;28;31733;-73
2022/11/22 05:04:24;;;;;;;;;;;;;;;0.19;100.00;99254.41;2088806;28;36148;-74
2022/11/22 05:05:26;;;;;;;;;;;;;;;0.18;100.00;99257.94;2089053;28;30638;-72
2022/11/22 05:06:27;;;;;;;;;;;;;;;0.19;100.00;99260.53;2088296;28;35326;-73
2022/11/22 05:07:29;;;;;;;;;;;;;;;0.20;100.00;99256.16;2087413;28;42549;-75
2022/11/22 05:08:31;;;;;;;;;;;;;;;0.21;100.00;99260.53;2089642;28;20071;-73
2022/11/22 05:09:32;;;;;;;;;;;;;;;0.21;100.00;99259.66;2088712;28;35122;-75
2022/11/22 05:11:55;;;;;;;;;;;;;;;0.22;100.00;99254.38;2089089;28;32901;-73
2022/11/22 05:12:57;;;;;;;;;;;;;;;0.22;100.00;99253.53;2088641;28;38571;-72
2022/11/22 05:13:58;;;;;;;;;;;;;;;0.22;100.00;99261.44;2088672;28;31420;-73
2022/11/22 05:15:00;;;;;;;;;;;;;;;0.22;100.00;99259.66;2089210;28;37070;-72
2022/11/22 05:16:03;;;;;;;;;;;;;;;0.24;100.00;99267.53;2088958;28;33197;-72
2022/11/22 05:17:05;;;;;;;;;;;;;;;0.23;100.00;99264.00;2088980;28;38715;-72
2022/11/22 05:18:06;;;;;;;;;;;;;;;0.25;100.00;99279.78;2088335;28;34625;-73
2022/11/22 05:19:08;;;;;;;;;;;;;;;0.24;100.00;99263.13;2088838;28;38388;-73
2022/11/22 05:20:10;;;;;;;;;;;;;;;0.26;100.00;99278.94;2088901;28;31658;-73
2022/11/22 05:21:13;;;;;;;;;;;;;;;0.24;100.00;99271.03;2088956;28;41886;-74
2022/11/22 05:22:15;;;;;;;;;;;;;;;0.25;100.00;99280.69;2088686;28;35345;-72
2022/11/22 05:24:38;;;;;;;;;;;;;;;0.26;100.00;99279.78;2089039;28;30530;-72
2022/11/22 05:25:40;;;;;;;;;;;;;;;0.27;100.00;99283.28;2088363;28;34749;-72
2022/11/22 05:26:42;;;;;;;;;;;;;;;0.25;100.00;99282.44;2088805;28;32444;-73
2022/11/22 05:27:43;;;;;;;;;;;;;;;0.26;100.00;99279.78;2088967;28;29272;-73
2022/11/22 05:28:45;;;;;;;;;;;;;;;0.25;100.00;99278.06;2088777;28;35728;-72
2022/11/22 05:29:46;;;;;;;;;;;;;;;0.27;100.00;99273.66;2088689;28;36835;-72
2022/11/22 05:30:51;;;;;;;;;;;;;;;0.28;100.00;99264.00;2088640;28;36326;-74
2022/11/22 05:31:52;;;;;;;;;;;;;;;0.26;100.00;99271.91;2088654;28;35353;-72
2022/11/22 05:32:54;;;;;;;;;;;;;;;0.28;100.00;99275.38;2088811;28;38022;-72
2022/11/22 05:33:59;;;;;;;;;;;;;;;0.29;100.00;99266.63;2088901;28;36529;-72
2022/11/22 05:35:00;;;;;;;;;;;;;;;0.29;100.00;99277.16;2088653;28;36026;-72
2022/11/22 05:36:03;;;;;;;;;;;;;;;0.29;100.00;99274.50;2089438;28;19916;-72
2022/11/22 05:37:05;;;;;;;;;;;;;;;0.30;100.00;99268.34;2088667;28;32214;-73
2022/11/22 05:38:06;;;;;;;;;;;;;;;0.29;100.00;99266.63;2088420;28;36306;-72